Time;durP1;ratioP1;P1;durP2;ratioP2;P2;SDS_P1;SDS_P2;PMS_P1;PMS_P2;Temp;Humidity;BMP_temperature;BMP_pressure;BME280_temperature;BME280_humidity;BME280_pressure;Samples;Min_cycle;Max_cycle;Signal;HPM_P1;HPM_P2
2023/07/02 00:01:34;;;;;;;34.00;16.20;;;18.50;99.90;;;;;;7281799;19;21127;-77
2023/07/02 00:04:00;;;;;;;37.47;17.07;;;18.50;99.90;;;;;;7284678;19;20191;-76
2023/07/02 00:06:26;;;;;;;33.90;15.83;;;18.50;99.90;;;;;;7304583;19;20189;-76
2023/07/02 00:08:51;;;;;;;35.93;16.83;;;18.40;99.90;;;;;;7284053;19;20207;-76
2023/07/02 00:11:17;;;;;;;35.80;16.93;;;18.30;99.90;;;;;;7281904;19;20194;-76
2023/07/02 00:13:43;;;;;;;35.87;16.43;;;18.30;99.90;;;;;;7282785;19;20192;-76
2023/07/02 00:16:08;;;;;;;41.27;17.17;;;18.30;99.90;;;;;;7280172;19;20185;-76
2023/07/02 00:18:34;;;;;;;34.60;15.80;;;18.40;99.90;;;;;;7281805;19;20197;-76
2023/07/02 00:21:03;;;;;;;42.10;19.15;;;18.50;99.90;;;;;;7280758;19;21512;-75
2023/07/02 00:23:29;;;;;;;37.03;17.47;;;18.40;99.90;;;;;;7280130;19;20201;-75
2023/07/02 00:25:56;;;;;;;39.37;16.73;;;18.50;99.90;;;;;;7303773;19;20196;-75
2023/07/02 00:28:22;;;;;;;40.93;18.03;;;18.50;99.90;;;;;;7281065;19;20192;-75
2023/07/02 00:30:48;;;;;;;38.13;17.93;;;18.50;99.90;;;;;;7280011;19;20241;-75
2023/07/02 00:33:15;;;;;;;35.53;16.87;;;18.50;99.90;;;;;;7278697;19;20268;-75
2023/07/02 00:35:40;;;;;;;36.63;17.00;;;18.30;99.90;;;;;;7279786;19;20205;-75
2023/07/02 00:38:06;;;;;;;43.13;17.70;;;18.30;99.90;;;;;;7279836;19;20181;-75
2023/07/02 00:40:32;;;;;;;41.33;17.23;;;18.30;99.90;;;;;;7278151;19;20183;-75
2023/07/02 00:42:57;;;;;;;42.97;17.80;;;18.30;99.90;;;;;;7294936;19;20181;-75
2023/07/02 00:45:26;;;;;;;39.50;18.20;;;18.30;99.90;;;;;;7298276;19;20212;-75
2023/07/02 00:47:54;;;;;;;43.83;18.27;;;18.20;99.90;;;;;;7279178;19;20197;-75
2023/07/02 00:50:22;;;;;;;43.43;18.47;;;18.20;99.90;;;;;;7281255;19;20519;-75
2023/07/02 00:52:49;;;;;;;40.57;18.33;;;18.20;99.90;;;;;;7282133;19;20292;-75
2023/07/02 00:55:15;;;;;;;39.70;18.37;;;18.20;99.90;;;;;;7280925;19;20180;-75
2023/07/02 00:57:46;;;;;;;44.40;18.80;;;18.10;99.90;;;;;;7282147;19;20181;-75
2023/07/02 01:00:13;;;;;;;44.07;18.83;;;18.00;99.90;;;;;;7279916;19;20548;-74
2023/07/02 01:02:43;;;;;;;41.47;19.37;;;18.10;99.90;;;;;;7279466;19;20204;-76
2023/07/02 01:05:14;;;;;;;43.43;20.10;;;18.10;99.90;;;;;;7280390;19;20189;-75
2023/07/02 01:07:41;;;;;;;42.20;19.67;;;18.00;99.90;;;;;;7280170;19;20312;-76
2023/07/02 01:10:07;;;;;;;44.63;19.13;;;18.10;99.90;;;;;;7280828;19;20280;-75
2023/07/02 01:12:34;;;;;;;41.53;18.73;;;18.10;99.90;;;;;;7279636;19;20185;-75
2023/07/02 01:15:02;;;;;;;41.67;20.50;;;18.00;99.90;;;;;;7280146;19;20535;-75
2023/07/02 01:17:39;;;;;;;45.43;20.03;;;18.10;99.90;;;;;;7279161;19;20252;-75
2023/07/02 01:20:11;;;;;;;50.67;20.80;;;18.00;99.90;;;;;;7280852;19;20181;-75
2023/07/02 01:22:38;;;;;;;44.93;20.83;;;18.10;99.90;;;;;;7277603;19;20185;-75
2023/07/02 01:25:05;;;;;;;46.03;20.87;;;18.10;99.90;;;;;;7278066;19;20292;-74
2023/07/02 01:27:32;;;;;;;47.13;21.40;;;18.10;99.90;;;;;;7277681;19;20184;-75
2023/07/02 01:29:57;;;;;;;44.10;20.90;;;18.10;99.90;;;;;;7296429;19;20189;-75
2023/07/02 01:32:23;;;;;;;42.50;20.97;;;18.10;99.90;;;;;;7294654;19;20191;-75
2023/07/02 01:34:53;;;;;;;50.37;21.73;;;18.00;99.90;;;;;;7280745;19;20648;-75
2023/07/02 01:37:19;;;;;;;49.00;21.77;;;18.00;99.90;;;;;;7279541;19;20216;-75
2023/07/02 01:39:45;;;;;;;46.13;20.87;;;17.80;99.90;;;;;;7278470;19;20208;-76
2023/07/02 01:42:12;;;;;;;47.07;22.10;;;17.90;99.90;;;;;;7278839;19;20621;-75
2023/07/02 01:44:38;;;;;;;45.73;20.77;;;17.90;99.90;;;;;;7279030;19;20189;-75
2023/07/02 01:47:05;;;;;;;54.70;22.00;;;17.80;99.90;;;;;;7278839;19;20223;-75
2023/07/02 01:49:31;;;;;;;52.73;21.70;;;17.80;99.90;;;;;;7280008;19;20189;-75
2023/07/02 01:51:57;;;;;;;53.90;22.00;;;17.90;99.90;;;;;;7300796;19;20195;-75
2023/07/02 01:54:26;;;;;;;50.27;21.13;;;17.90;99.90;;;;;;7278478;19;20185;-74
2023/07/02 01:56:53;;;;;;;48.60;22.30;;;18.00;99.90;;;;;;7279430;19;20189;-74
2023/07/02 01:59:18;;;;;;;54.03;22.53;;;18.00;99.90;;;;;;7278273;19;20622;-75
2023/07/02 02:01:44;;;;;;;49.97;23.27;;;18.00;99.90;;;;;;7277554;19;20281;-75
2023/07/02 02:04:10;;;;;;;51.47;22.33;;;18.00;99.90;;;;;;7277749;19;20761;-75
2023/07/02 02:06:37;;;;;;;48.90;22.97;;;18.00;99.90;;;;;;7277716;19;20879;-75
2023/07/02 02:09:04;;;;;;;51.70;22.93;;;18.10;99.90;;;;;;7277845;19;20513;-75
2023/07/02 02:11:31;;;;;;;52.07;24.27;;;18.10;99.90;;;;;;7276726;19;20192;-75
2023/07/02 02:13:57;;;;;;;56.57;23.57;;;18.20;99.90;;;;;;7300019;19;20212;-75
2023/07/02 02:16:23;;;;;;;53.33;22.67;;;18.10;99.90;;;;;;7279361;19;20562;-75
2023/07/02 02:18:52;;;;;;;53.10;24.60;;;18.10;99.90;;;;;;7278232;19;20188;-75
2023/07/02 02:21:21;;;;;;;64.23;24.83;;;18.10;99.90;;;;;;7278339;19;20299;-75
2023/07/02 02:23:47;;;;;;;58.63;24.07;;;18.00;99.90;;;;;;7282988;19;20272;-75
2023/07/02 02:26:14;;;;;;;57.23;24.67;;;17.90;99.90;;;;;;7292407;19;20220;-75
2023/07/02 02:28:41;;;;;;;57.77;24.23;;;17.90;99.90;;;;;;7291688;19;20207;-75
2023/07/02 02:31:06;;;;;;;59.07;24.27;;;17.80;99.90;;;;;;7293109;19;20189;-75
2023/07/02 02:33:35;;;;;;;60.20;24.53;;;17.80;99.90;;;;;;7291045;19;20587;-74
2023/07/02 02:36:04;;;;;;;60.40;25.43;;;17.70;99.90;;;;;;7290839;19;20520;-74
2023/07/02 02:38:30;;;;;;;57.23;25.97;;;17.70;99.90;;;;;;7290452;19;20227;-75
2023/07/02 02:40:56;;;;;;;60.07;25.27;;;17.80;99.90;;;;;;7314099;19;20660;-74
2023/07/02 02:43:22;;;;;;;64.53;26.33;;;17.80;99.90;;;;;;7290961;19;20603;-75
2023/07/02 02:45:49;;;;;;;62.23;24.87;;;17.80;99.90;;;;;;7291872;19;20213;-75
2023/07/02 02:48:15;;;;;;;63.10;25.30;;;17.80;99.90;;;;;;7289588;19;20627;-75
2023/07/02 02:50:43;;;;;;;57.40;25.43;;;17.90;99.90;;;;;;7291664;19;20192;-74
2023/07/02 02:53:10;;;;;;;58.60;25.40;;;17.70;99.90;;;;;;7289862;19;20184;-75
2023/07/02 02:55:36;;;;;;;65.43;25.87;;;17.70;99.90;;;;;;7292335;19;20557;-75
2023/07/02 02:58:02;;;;;;;61.23;26.43;;;17.60;99.90;;;;;;7291539;19;20189;-75
2023/07/02 03:00:28;;;;;;;63.80;25.03;;;17.60;99.90;;;;;;7306942;19;20188;-75
2023/07/02 03:02:53;;;;;;;64.97;25.43;;;17.50;99.90;;;;;;7306026;19;20215;-75
2023/07/02 03:05:19;;;;;;;59.60;25.53;;;17.60;99.90;;;;;;7291313;19;20196;-75
2023/07/02 03:07:45;;;;;;;75.50;27.07;;;17.60;99.90;;;;;;7289235;19;20193;-75
2023/07/02 03:10:11;;;;;;;61.50;26.67;;;17.60;99.90;;;;;;7290794;19;20200;-75
2023/07/02 03:12:39;;;;;;;66.27;26.23;;;17.40;99.90;;;;;;7290426;19;20223;-75
2023/07/02 03:15:06;;;;;;;61.47;27.20;;;17.30;99.90;;;;;;7290750;19;20640;-75
2023/07/02 03:17:31;;;;;;;67.57;26.57;;;17.30;99.90;;;;;;7290688;19;20181;-75
2023/07/02 03:19:57;;;;;;;62.80;26.53;;;17.30;99.90;;;;;;7312512;19;20195;-75
2023/07/02 03:22:23;;;;;;;57.37;26.33;;;17.30;99.90;;;;;;7290762;19;20185;-74
2023/07/02 03:24:48;;;;;;;64.13;27.50;;;17.30;99.90;;;;;;7290673;19;20760;-75
2023/07/02 03:27:14;;;;;;;65.87;27.40;;;17.30;99.90;;;;;;7290495;19;20185;-75
2023/07/02 03:29:40;;;;;;;61.17;25.93;;;17.30;99.90;;;;;;7289608;19;20646;-75
2023/07/02 03:32:06;;;;;;;71.53;28.00;;;17.30;99.90;;;;;;7290557;19;20208;-75
2023/07/02 03:34:32;;;;;;;68.13;27.07;;;17.40;99.90;;;;;;7289947;19;20184;-75
2023/07/02 03:36:58;;;;;;;70.53;27.27;;;17.30;99.90;;;;;;7293114;19;20576;-75
2023/07/02 03:39:23;;;;;;;72.10;27.67;;;17.30;99.90;;;;;;7298865;19;20207;-75
2023/07/02 03:41:50;;;;;;;71.33;27.97;;;17.30;99.90;;;;;;7281370;19;20189;-75
2023/07/02 03:44:15;;;;;;;68.27;28.17;;;17.40;99.90;;;;;;7283776;19;20184;-75
2023/07/02 03:46:41;;;;;;;66.87;27.17;;;17.40;99.90;;;;;;7283537;19;20790;-75
2023/07/02 03:49:07;;;;;;;68.27;27.17;;;17.40;99.90;;;;;;7280706;19;20186;-75
2023/07/02 03:51:32;;;;;;;75.73;27.33;;;17.40;99.90;;;;;;7282195;19;20204;-75
2023/07/02 03:53:58;;;;;;;67.57;26.10;;;17.40;99.90;;;;;;7295027;19;20189;-75
2023/07/02 03:56:24;;;;;;;62.17;26.07;;;17.40;99.90;;;;;;7300744;19;20177;-75
2023/07/02 03:58:50;;;;;;;72.47;29.37;;;17.30;99.90;;;;;;7282606;19;20710;-75
2023/07/02 04:01:16;;;;;;;70.53;27.77;;;17.30;99.90;;;;;;7282629;19;20200;-75
2023/07/02 04:03:49;;;;;;;69.23;28.07;;;17.30;99.90;;;;;;7283074;19;20848;-75
2023/07/02 04:06:15;;;;;;;69.43;27.23;;;17.30;99.90;;;;;;7281571;19;20587;-75
2023/07/02 04:08:41;;;;;;;67.67;26.73;;;17.40;99.90;;;;;;7282070;19;20198;-75
2023/07/02 04:11:07;;;;;;;73.67;28.27;;;17.40;99.90;;;;;;7282284;19;20189;-75
2023/07/02 04:13:32;;;;;;;66.30;27.50;;;17.40;99.90;;;;;;7282242;19;20204;-75
2023/07/02 04:15:58;;;;;;;65.80;27.07;;;17.40;99.90;;;;;;7290642;19;20269;-75
2023/07/02 04:18:24;;;;;;;65.93;26.93;;;17.40;99.90;;;;;;7301033;19;20267;-75
2023/07/02 04:20:50;;;;;;;59.77;26.93;;;17.40;99.90;;;;;;7280348;19;20797;-75
2023/07/02 04:23:16;;;;;;;68.33;26.60;;;17.40;99.90;;;;;;7281371;19;20606;-75
2023/07/02 04:25:42;;;;;;;70.40;27.70;;;17.40;99.90;;;;;;7281945;19;20193;-75
2023/07/02 04:28:07;;;;;;;67.17;27.43;;;17.60;99.90;;;;;;7282071;19;20212;-75
2023/07/02 04:30:34;;;;;;;64.40;26.73;;;17.70;99.90;;;;;;7282368;19;20193;-75
2023/07/02 04:33:00;;;;;;;59.03;25.67;;;17.80;99.90;;;;;;7281250;19;20242;-75
2023/07/02 04:35:26;;;;;;;64.03;27.03;;;17.90;99.90;;;;;;7302607;19;20195;-75
2023/07/02 04:37:52;;;;;;;61.97;26.93;;;18.00;99.90;;;;;;7279558;19;20253;-75
2023/07/02 04:40:17;;;;;;;69.77;26.40;;;18.40;99.90;;;;;;7279975;19;20297;-75
2023/07/02 04:42:57;;;;;;;65.07;26.60;;;18.80;99.90;;;;;;7280365;19;20580;-75
2023/07/02 04:45:23;;;;;;;56.30;27.03;;;18.90;99.90;;;;;;7280257;19;20196;-75
2023/07/02 04:47:49;;;;;;;57.27;26.47;;;18.80;99.90;;;;;;7280399;19;20549;-75
2023/07/02 04:50:16;;;;;;;58.37;25.80;;;18.60;99.90;;;;;;7279602;19;20192;-75
2023/07/02 04:52:41;;;;;;;65.23;26.10;;;18.50;99.90;;;;;;7281114;19;20490;-75
2023/07/02 04:55:07;;;;;;;55.10;25.83;;;18.50;99.90;;;;;;7280457;19;20292;-76
2023/07/02 04:57:33;;;;;;;64.63;27.13;;;18.50;99.90;;;;;;7280891;19;20188;-76
2023/07/02 04:59:59;;;;;;;57.27;26.23;;;18.50;99.90;;;;;;7287018;19;20188;-76
2023/07/02 05:02:24;;;;;;;60.00;26.07;;;18.60;99.90;;;;;;7302795;19;20198;-76
2023/07/02 05:04:50;;;;;;;57.73;26.07;;;18.70;99.90;;;;;;7280321;19;20196;-76
2023/07/02 05:07:16;;;;;;;60.27;27.07;;;18.70;99.90;;;;;;7279933;19;20210;-76
2023/07/02 05:09:42;;;;;;;58.93;25.57;;;19.20;99.90;;;;;;7281467;19;20192;-77
2023/07/02 05:12:09;;;;;;;52.43;25.50;;;20.10;99.90;;;;;;7280027;19;20186;-77
2023/07/02 05:14:34;;;;;;;61.67;26.33;;;20.70;99.90;;;;;;7279965;19;20725;-73
2023/07/02 05:17:00;;;;;;;56.83;26.10;;;21.00;99.90;;;;;;7278272;19;20198;-74
2023/07/02 05:19:26;;;;;;;61.50;25.67;;;20.90;99.90;;;;;;7301704;19;20658;-74
2023/07/02 05:21:52;;;;;;;56.87;26.00;;;21.00;99.90;;;;;;7278787;19;20192;-74
2023/07/02 05:24:17;;;;;;;60.00;25.37;;;21.30;99.90;;;;;;7281640;19;20196;-74
2023/07/02 05:26:43;;;;;;;58.07;26.10;;;21.70;99.90;;;;;;7280566;19;20215;-75
2023/07/02 05:29:09;;;;;;;55.70;26.10;;;21.70;99.90;;;;;;7280132;19;20194;-74
2023/07/02 05:31:35;;;;;;;53.80;25.27;;;21.40;99.90;;;;;;7279484;19;20674;-74
2023/07/02 05:34:01;;;;;;;52.50;25.70;;;20.90;99.90;;;;;;7281035;19;20251;-76
2023/07/02 05:36:26;;;;;;;60.70;26.33;;;20.70;99.90;;;;;;7302643;19;20284;-76
2023/07/02 05:38:52;;;;;;;53.23;25.17;;;20.60;99.90;;;;;;7280480;19;20191;-76
2023/07/02 05:41:21;;;;;;;55.73;25.37;;;21.80;99.90;;;;;;7279666;19;20200;-76
2023/07/02 05:43:47;;;;;;;55.03;24.60;;;22.70;99.90;;;;;;7280170;19;20260;-76
2023/07/02 05:46:14;;;;;;;58.13;26.53;;;23.10;99.90;;;;;;7279714;19;20566;-76
2023/07/02 05:48:40;;;;;;;56.17;25.03;;;23.20;99.90;;;;;;7280094;19;20223;-75
2023/07/02 05:51:07;;;;;;;57.97;25.00;;;22.80;99.90;;;;;;7280098;19;20184;-76
2023/07/02 05:53:33;;;;;;;54.13;24.83;;;22.20;99.90;;;;;;7280773;19;20215;-76
2023/07/02 05:55:58;;;;;;;56.10;25.33;;;21.70;99.90;;;;;;7289351;19;20185;-76
2023/07/02 05:58:24;;;;;;;56.60;25.27;;;21.60;99.90;;;;;;7297229;19;20292;-76
2023/07/02 06:00:50;;;;;;;54.23;24.60;;;22.00;99.90;;;;;;7279129;19;20191;-76
2023/07/02 06:03:19;;;;;;;59.17;25.33;;;22.50;99.90;;;;;;7277566;19;20200;-77
2023/07/02 06:05:48;;;;;;;54.93;24.00;;;23.50;99.90;;;;;;7279568;19;20199;-76
2023/07/02 06:08:15;;;;;;;51.63;24.17;;;24.00;99.90;;;;;;7279996;19;20193;-76
2023/07/02 06:10:41;;;;;;;52.40;23.77;;;23.70;99.90;;;;;;7279690;19;20196;-77
2023/07/02 06:13:07;;;;;;;56.03;24.93;;;23.20;99.90;;;;;;7277008;19;20193;-76
2023/07/02 06:15:33;;;;;;;51.93;24.70;;;22.90;99.90;;;;;;7278597;19;20196;-76
2023/07/02 06:17:58;;;;;;;60.10;25.10;;;22.90;99.90;;;;;;7288633;19;20283;-75
2023/07/02 06:20:24;;;;;;;55.60;24.10;;;23.10;99.90;;;;;;7298091;19;20185;-76
2023/07/02 06:22:50;;;;;;;49.93;23.27;;;23.30;99.90;;;;;;7278069;19;20191;-75
2023/07/02 06:25:15;;;;;;;49.93;23.70;;;23.50;99.90;;;;;;7278583;19;20192;-75
2023/07/02 06:27:41;;;;;;;47.70;22.70;;;24.00;99.90;;;;;;7278885;19;20815;-76
2023/07/02 06:30:07;;;;;;;56.03;23.63;;;24.40;99.90;;;;;;7278139;19;20272;-76
2023/07/02 06:32:33;;;;;;;44.30;22.10;;;24.20;99.90;;;;;;7279362;19;20728;-76
2023/07/02 06:34:58;;;;;;;49.73;22.07;;;24.20;99.90;;;;;;7288871;19;20208;-77
2023/07/02 06:37:24;;;;;;;52.20;23.50;;;24.40;99.90;;;;;;7298037;19;20196;-76
2023/07/02 06:39:50;;;;;;;46.60;21.93;;;24.30;99.90;;;;;;7282020;19;20677;-82
2023/07/02 06:42:15;;;;;;;49.88;22.38;;;24.80;99.90;;;;;;7283026;19;20198;-82
2023/07/02 06:44:41;;;;;;;46.75;21.48;;;25.50;99.90;;;;;;7282262;19;20192;-81
2023/07/02 06:47:07;;;;;;;48.35;21.98;;;25.70;99.90;;;;;;7281424;19;20181;-82
2023/07/02 06:49:33;;;;;;;43.80;20.90;;;26.40;99.90;;;;;;7281646;19;20187;-82
2023/07/02 06:52:00;;;;;;;47.40;22.40;;;26.50;99.90;;;;;;7289068;19;20285;-81
2023/07/02 06:54:26;;;;;;;43.72;21.92;;;26.70;99.90;;;;;;7304379;19;20217;-82
2023/07/02 06:56:52;;;;;;;46.45;20.23;;;27.50;99.90;;;;;;7281775;19;20193;-82
2023/07/02 06:59:22;;;;;;;45.55;19.35;;;27.30;99.90;;;;;;7281960;19;20218;-82
2023/07/02 07:01:47;;;;;;;39.70;19.65;;;27.20;99.90;;;;;;7282050;19;20203;-82
2023/07/02 07:04:13;;;;;;;41.67;19.70;;;27.30;99.90;;;;;;7281212;19;20617;-82
2023/07/02 07:06:39;;;;;;;40.88;18.35;;;27.30;99.90;;;;;;7281719;19;20193;-82
2023/07/02 07:09:05;;;;;;;33.58;16.02;;;27.50;99.90;;;;;;7280408;19;20193;-81
2023/07/02 07:11:31;;;;;;;39.05;17.48;;;28.10;99.90;;;;;;7288091;19;20185;-82
2023/07/02 07:13:56;;;;;;;41.75;19.27;;;28.80;99.90;;;;;;7311655;19;20194;-82
2023/07/02 07:16:22;;;;;;;40.67;19.00;;;28.60;99.90;;;;;;7288294;19;20200;-82
2023/07/02 07:18:48;;;;;;;36.25;17.17;;;29.20;99.90;;;;;;7289077;19;20230;-81
2023/07/02 07:21:14;;;;;;;35.60;18.13;;;29.30;99.90;;;;;;7289221;19;20193;-82
2023/07/02 07:23:40;;;;;;;38.80;17.45;;;28.20;99.90;;;;;;7287162;19;20552;-82
2023/07/02 07:26:06;;;;;;;37.22;17.65;;;27.50;99.90;;;;;;7285580;19;20205;-82
2023/07/02 07:28:32;;;;;;;35.60;16.67;;;27.10;99.90;;;;;;7287883;19;20192;-82
2023/07/02 07:30:58;;;;;;;37.22;16.23;;;27.20;99.90;;;;;;7304859;19;20209;-81
2023/07/02 07:33:24;;;;;;;37.03;16.48;;;27.70;99.90;;;;;;7298659;19;20188;-83
2023/07/02 07:35:49;;;;;;;35.00;14.85;;;27.90;99.90;;;;;;7288281;19;20251;-82
2023/07/02 07:38:16;;;;;;;35.88;16.25;;;27.50;99.90;;;;;;7287014;19;20201;-82
2023/07/02 07:40:43;;;;;;;33.78;15.27;;;27.40;99.90;;;;;;7284751;19;20181;-82
2023/07/02 07:43:09;;;;;;;33.75;14.95;;;27.40;99.90;;;;;;7286224;19;20197;-82
2023/07/02 07:45:34;;;;;;;33.63;16.02;;;27.10;99.90;;;;;;7287392;19;20217;-81
2023/07/02 07:48:01;;;;;;;35.08;15.90;;;27.00;99.90;;;;;;7288019;19;20534;-81
2023/07/02 07:50:26;;;;;;;37.47;15.82;;;27.20;99.90;;;;;;7309329;19;20185;-81
2023/07/02 07:52:52;;;;;;;35.85;15.63;;;27.20;99.90;;;;;;7286699;19;20234;-82
2023/07/02 07:55:18;;;;;;;31.88;15.75;;;27.40;99.90;;;;;;7287728;19;20218;-82
2023/07/02 07:57:43;;;;;;;34.97;15.52;;;27.60;99.90;;;;;;7287366;19;20192;-82
2023/07/02 08:00:10;;;;;;;33.30;15.73;;;27.80;99.90;;;;;;7286735;19;20209;-82
2023/07/02 08:02:47;;;;;;;32.53;15.57;;;28.00;99.90;;;;;;7286003;19;20211;-82
2023/07/02 08:05:13;;;;;;;33.70;15.35;;;28.20;99.90;;;;;;7287417;19;20193;-82
2023/07/02 08:07:40;;;;;;;33.25;14.50;;;27.90;99.90;;;;;;7287167;19;20199;-82
2023/07/02 08:10:07;;;;;;;36.33;16.20;;;28.00;99.90;;;;;;7287128;19;20192;-82
2023/07/02 08:12:34;;;;;;;35.20;15.80;;;28.00;99.90;;;;;;7285227;19;20652;-81
2023/07/02 08:15:00;;;;;;;37.65;15.35;;;27.70;99.90;;;;;;7291585;19;20644;-81
2023/07/02 08:17:25;;;;;;;32.63;15.32;;;27.40;99.90;;;;;;7308975;19;20590;-82
2023/07/02 08:19:51;;;;;;;32.92;15.20;;;27.30;99.90;;;;;;7287375;19;20197;-81
2023/07/02 08:22:17;;;;;;;30.48;14.93;;;27.20;99.90;;;;;;7284773;19;20199;-81
2023/07/02 08:24:43;;;;;;;32.60;15.20;;;26.90;99.90;;;;;;7286426;19;20197;-81
2023/07/02 08:27:10;;;;;;;35.15;15.40;;;27.20;99.90;;;;;;7285134;19;20640;-81
2023/07/02 08:29:35;;;;;;;34.50;14.95;;;27.20;99.90;;;;;;7286166;19;20205;-81
2023/07/02 08:32:01;;;;;;;34.88;14.90;;;27.00;99.90;;;;;;7286620;19;20188;-80
2023/07/02 08:34:27;;;;;;;36.30;15.68;;;26.80;99.90;;;;;;7307997;19;20248;-81
2023/07/02 08:36:53;;;;;;;33.03;14.48;;;26.30;99.90;;;;;;7286351;19;20526;-81
2023/07/02 08:39:18;;;;;;;33.97;15.18;;;26.40;99.90;;;;;;7285880;19;20216;-81
2023/07/02 08:41:45;;;;;;;30.67;14.40;;;26.00;99.90;;;;;;7286077;19;20188;-81
2023/07/02 08:44:13;;;;;;;37.33;15.93;;;25.60;99.90;;;;;;7288113;19;20189;-80
2023/07/02 08:46:41;;;;;;;32.25;15.32;;;25.50;99.90;;;;;;7286442;19;20272;-82
2023/07/02 08:49:07;;;;;;;31.60;13.82;;;25.30;99.90;;;;;;7285255;19;20272;-82
2023/07/02 08:51:34;;;;;;;31.95;13.73;;;25.30;99.90;;;;;;7284482;19;20628;-82
2023/07/02 08:54:01;;;;;;;28.88;13.05;;;24.90;99.90;;;;;;7289450;19;20312;-83
2023/07/02 08:56:26;;;;;;;31.52;13.77;;;25.30;99.90;;;;;;7306131;19;20607;-83
2023/07/02 08:58:53;;;;;;;31.65;13.55;;;26.00;99.90;;;;;;7285242;19;20608;-82
2023/07/02 09:01:19;;;;;;;33.67;14.20;;;26.30;99.90;;;;;;7285128;19;20714;-83
2023/07/02 09:03:45;;;;;;;29.90;12.65;;;26.10;99.90;;;;;;7284609;19;20205;-82
2023/07/02 09:06:12;;;;;;;31.23;12.05;;;26.00;99.90;;;;;;7284857;19;20570;-83
2023/07/02 09:08:38;;;;;;;30.27;13.15;;;25.90;99.90;;;;;;7286892;19;20205;-84
2023/07/02 09:11:12;;;;;;;30.30;12.82;;;25.40;99.90;;;;;;7285758;19;20204;-84
2023/07/02 09:13:52;;;;;;;30.02;13.07;;;24.80;99.90;;;;;;7284699;19;20294;-84
2023/07/02 09:16:23;;;;;;;29.75;13.13;;;24.70;99.90;;;;;;7284064;19;20205;-82
2023/07/02 09:18:57;;;;;;;30.37;13.17;;;24.40;99.90;;;;;;7283993;19;20226;-83
2023/07/02 09:21:22;;;;;;;27.73;12.87;;;24.00;99.90;;;;;;7285317;19;20193;-84
2023/07/02 09:23:48;;;;;;;32.47;13.43;;;23.90;99.90;;;;;;7286315;19;20212;-82
2023/07/02 09:26:23;;;;;;;28.77;12.93;;;23.80;99.90;;;;;;7286270;19;20546;-84
2023/07/02 09:28:49;;;;;;;27.57;12.20;;;23.50;99.90;;;;;;7283854;19;20181;-83
2023/07/02 09:31:15;;;;;;;28.73;11.67;;;22.90;99.90;;;;;;7286544;19;20191;-83
2023/07/02 09:33:41;;;;;;;30.20;12.63;;;22.80;99.90;;;;;;7281499;19;20316;-83
2023/07/02 09:36:06;;;;;;;33.47;12.03;;;23.10;99.90;;;;;;7285221;19;20652;-84
2023/07/02 09:38:32;;;;;;;29.67;12.57;;;23.50;99.90;;;;;;7284336;19;20303;-82
2023/07/02 09:40:59;;;;;;;30.07;11.90;;;24.50;99.90;;;;;;7305930;19;20189;-83
2023/07/02 09:43:26;;;;;;;27.23;11.73;;;26.50;99.90;;;;;;7282880;19;20640;-84
2023/07/02 09:45:56;;;;;;;25.60;11.93;;;27.50;99.90;;;;;;7284136;19;20193;-84
2023/07/02 09:48:28;;;;;;;31.20;12.40;;;28.00;99.90;;;;;;7282176;19;20185;-83
2023/07/02 09:50:54;;;;;;;27.92;12.65;;;28.00;99.90;;;;;;7285654;19;20197;-82
2023/07/02 09:53:20;;;;;;;27.02;12.15;;;27.90;99.90;;;;;;7283597;19;20181;-82
2023/07/02 09:55:46;;;;;;;28.25;13.02;;;27.10;99.90;;;;;;7283355;19;20199;-84
2023/07/02 09:58:12;;;;;;;28.42;12.32;;;26.50;99.90;;;;;;7283541;19;20259;-83
2023/07/02 10:00:39;;;;;;;30.88;12.65;;;25.60;99.90;;;;;;7282121;19;20659;-82
2023/07/02 10:03:05;;;;;;;31.77;12.25;;;25.10;99.90;;;;;;7283003;19;20212;-82
2023/07/02 10:05:32;;;;;;;26.48;11.52;;;25.10;99.90;;;;;;7282987;19;20199;-83
2023/07/02 10:08:11;;;;;;;31.10;12.07;;;25.20;99.90;;;;;;7303538;19;20348;-80
2023/07/02 10:10:37;;;;;;;31.92;12.52;;;25.20;99.90;;;;;;7179117;19;2004600;-83
2023/07/02 10:13:02;;;;;;;29.33;12.32;;;26.10;99.90;;;;;;7282729;19;20316;-83
2023/07/02 10:15:29;;;;;;;25.70;11.70;;;28.20;99.90;;;;;;7303445;19;20185;-80
2023/07/02 10:17:57;;;;;;;28.58;11.82;;;30.50;99.90;;;;;;7304666;19;20999;-82
2023/07/02 10:20:35;;;;;;;27.08;12.43;;;30.10;99.20;;;;;;7281294;19;20288;-83
2023/07/02 10:23:02;;;;;;;25.90;11.75;;;29.10;99.90;;;;;;7260643;19;20197;-83
2023/07/02 10:25:34;;;;;;;26.55;11.50;;;27.60;97.90;;;;;;7304883;19;20181;-83
2023/07/02 10:28:01;;;;;;;30.33;11.90;;;26.70;99.40;;;;;;7262502;19;20196;-82
2023/07/02 10:30:35;;;;;;;28.30;11.70;;;26.50;99.90;;;;;;7303941;19;20184;-85
2023/07/02 10:33:17;;;;;;;28.48;12.38;;;27.10;99.90;;;;;;7260830;19;20224;-82
2023/07/02 10:35:47;;;;;;;25.83;11.93;;;29.10;99.90;;;;;;7280433;19;20193;-84
2023/07/02 10:38:19;;;;;;;24.35;12.43;;;30.50;97.70;;;;;;7282490;19;20216;-83
2023/07/02 10:40:45;;;;;;;29.67;12.02;;;29.70;96.30;;;;;;7282093;19;20197;-83
2023/07/02 10:43:11;;;;;;;27.17;12.05;;;27.50;98.10;;;;;;7281975;19;20196;-82
2023/07/02 10:45:38;;;;;;;31.65;11.75;;;26.60;99.90;;;;;;7284554;19;20203;-85
2023/07/02 10:48:13;;;;;;;24.73;11.35;;;26.40;99.90;;;;;;7288424;19;20188;-83
2023/07/02 10:50:39;;;;;;;29.67;11.90;;;26.60;99.90;;;;;;7288384;19;20188;-84
2023/07/02 10:53:05;;;;;;;30.08;11.88;;;26.70;99.90;;;;;;7286095;19;20723;-84
2023/07/02 10:55:31;;;;;;;26.75;12.15;;;26.60;99.90;;;;;;7287258;19;20193;-84
2023/07/02 10:58:08;;;;;;;27.25;12.05;;;26.40;99.90;;;;;;7312323;19;20189;-85
2023/07/02 11:00:49;;;;;;;26.02;11.75;;;26.20;99.90;;;;;;7186476;19;2004527;-82
2023/07/02 11:03:23;;;;;;;27.63;11.73;;;26.10;99.90;;;;;;7287746;19;20192;-83
2023/07/02 11:05:50;;;;;;;24.20;11.55;;;26.10;99.90;;;;;;7289166;19;20212;-82
2023/07/02 11:08:16;;;;;;;29.38;11.13;;;25.80;99.90;;;;;;7290416;19;20189;-82
2023/07/02 11:10:42;;;;;;;27.02;9.98;;;25.70;99.90;;;;;;7290453;19;20679;-82
2023/07/02 11:13:15;;;;;;;23.35;10.20;;;25.50;99.90;;;;;;7288685;19;20193;-82
2023/07/02 11:15:41;;;;;;;28.05;11.35;;;25.20;99.90;;;;;;7290125;19;20663;-83
2023/07/02 11:18:15;;;;;;;25.80;10.63;;;25.00;99.90;;;;;;7289431;19;20193;-83
2023/07/02 11:20:42;;;;;;;25.92;10.95;;;24.90;99.90;;;;;;7287011;19;20193;-85
2023/07/02 11:23:24;;;;;;;25.45;10.50;;;25.20;99.90;;;;;;7293049;19;20988;-85
2023/07/02 11:26:00;;;;;;;26.50;10.52;;;25.60;99.90;;;;;;7288278;19;20192;-84
2023/07/02 11:28:27;;;;;;;26.42;10.48;;;26.10;99.90;;;;;;7288578;19;20188;-84
2023/07/02 11:30:53;;;;;;;24.95;9.93;;;26.50;99.90;;;;;;7288289;19;20199;-85
2023/07/02 11:33:31;;;;;;;23.92;10.10;;;25.70;99.90;;;;;;7289124;19;20213;-85
2023/07/02 11:35:57;;;;;;;26.90;10.05;;;25.30;99.50;;;;;;7289146;19;20189;-84
2023/07/02 11:38:23;;;;;;;23.05;9.82;;;25.40;99.90;;;;;;7283934;19;20192;-84
2023/07/02 11:40:48;;;;;;;24.08;10.50;;;26.30;99.90;;;;;;7290093;19;20198;-84
2023/07/02 11:43:15;;;;;;;26.88;11.05;;;27.00;99.90;;;;;;7289463;19;20204;-84
2023/07/02 11:45:43;;;;;;;24.00;10.68;;;28.20;99.40;;;;;;7288510;19;20194;-85
2023/07/02 11:48:09;;;;;;;24.73;10.48;;;29.40;97.10;;;;;;7287668;19;20193;-86
2023/07/02 11:50:34;;;;;;;26.52;10.95;;;30.00;96.70;;;;;;7289055;19;20956;-86
2023/07/02 11:53:00;;;;;;;23.48;10.85;;;30.40;95.50;;;;;;7290020;19;20185;-84
2023/07/02 11:55:26;;;;;;;25.80;10.85;;;30.10;93.30;;;;;;7310219;19;20288;-85
2023/07/02 11:57:51;;;;;;;25.65;10.68;;;30.40;93.40;;;;;;7286169;19;20176;-85
2023/07/02 12:00:17;;;;;;;25.35;11.63;;;29.90;93.20;;;;;;7288012;19;20269;-85
2023/07/02 12:02:43;;;;;;;23.52;10.48;;;29.10;93.70;;;;;;7286759;19;20211;-86
2023/07/02 12:05:09;;;;;;;26.63;10.93;;;28.00;93.30;;;;;;7287471;19;20648;-86
2023/07/02 12:07:35;;;;;;;26.00;11.55;;;27.00;95.50;;;;;;7287670;19;20185;-85
2023/07/02 12:10:01;;;;;;;26.08;10.70;;;26.80;97.10;;;;;;7287677;19;20185;-84
2023/07/02 12:12:26;;;;;;;23.92;10.90;;;26.80;97.70;;;;;;7310976;19;20260;-86
2023/07/02 12:14:52;;;;;;;24.90;10.75;;;27.10;98.10;;;;;;7288909;19;20197;-85
2023/07/02 12:17:18;;;;;;;20.45;9.73;;;27.30;97.40;;;;;;7287672;19;20185;-83
2023/07/02 12:19:43;;;;;;;27.17;10.32;;;27.70;97.70;;;;;;7287192;19;20215;-84
2023/07/02 12:22:10;;;;;;;26.48;11.13;;;28.10;97.50;;;;;;7286854;19;20185;-84
2023/07/02 12:24:37;;;;;;;27.50;10.32;;;28.30;96.70;;;;;;7287874;19;20614;-84
2023/07/02 12:27:02;;;;;;;25.15;10.52;;;28.40;96.30;;;;;;7287069;19;20185;-85